CheckWX is a tool to help pilots better visualize weather data.  It is not intended as a substitute for an official pre-flight weather briefing.

10:25:23 UTC

DAUB METAR
Biskra Airport
Biskra, Algeria
Current

25 mins ago

DAUB 261000Z 12003KT 9999 SCT040 SCT100 18/07 Q1016
Observed
Mar-26 @ 10:00 UTC
Wind
  • 120° at 3 KTS
Visibility
10,000+ meters
Flight Rules
VFR
Cloud Levels
  • Scattered at 4,000' AGL
  • Scattered at 10,000' AGL
Temperature
18°C / 64°F
Dewpoint
C / 45°F
Humidity
49%
Altimeter
30" Hg
Pressure
1015.92 hPa
Previous

1 hour ago

DAUB 260900Z 16004KT 9999 SCT040 SCT100 18/07 Q1016
Observed
Mar-26 @ 09:00 UTC
Wind
  • 160° at 4 KTS
Visibility
10,000+ meters
Flight Rules
VFR
Cloud Levels
  • Scattered at 4,000' AGL
  • Scattered at 10,000' AGL
Temperature
18°C / 64°F
Dewpoint
C / 45°F
Humidity
49%
Altimeter
30" Hg
Pressure
1015.92 hPa
Previous

2 hours ago

DAUB 260800Z 11007KT 9999 FEW040 SCT100 17/07 Q1015
Observed
Mar-26 @ 08:00 UTC
Wind
  • 110° at 7 KTS
Visibility
10,000+ meters
Flight Rules
VFR
Cloud Levels
  • Few at 4,000' AGL
  • Scattered at 10,000' AGL
Temperature
17°C / 63°F
Dewpoint
C / 45°F
Humidity
52%
Altimeter
29.97" Hg
Pressure
1014.92 hPa